createdAt,value
2023-04-20T00:02:39.865Z,3.67
2023-04-20T00:05:25.351Z,3.58
2023-04-20T00:08:10.668Z,3.47
2023-04-20T00:10:56.220Z,4.07
2023-04-20T00:13:41.425Z,4.03
2023-04-20T00:16:26.995Z,4.30
2023-04-20T00:19:12.862Z,3.35
2023-04-20T00:21:58.352Z,3.47
2023-04-20T00:24:43.652Z,3.65
2023-04-20T00:27:28.986Z,3.40
2023-04-20T00:30:14.971Z,3.63
2023-04-20T00:33:00.276Z,4.28
2023-04-20T00:35:45.998Z,3.67
2023-04-20T00:38:31.650Z,3.58
2023-04-20T00:41:18.083Z,3.70
2023-04-20T00:44:03.683Z,3.60
2023-04-20T00:46:51.707Z,3.05
2023-04-20T00:49:37.850Z,3.17
2023-04-20T00:52:23.703Z,3.40
2023-04-20T00:55:09.677Z,3.35
2023-04-20T00:57:57.131Z,3.67
2023-04-20T01:00:44.025Z,3.90
2023-04-20T01:03:29.909Z,3.53
2023-04-20T01:06:15.668Z,3.70
2023-04-20T01:09:01.550Z,3.33
2023-04-20T01:11:48.846Z,4.35
2023-04-20T01:14:35.349Z,3.80
2023-04-20T01:17:22.299Z,3.25
2023-04-20T01:20:11.665Z,3.50
2023-04-20T01:22:57.070Z,3.42
2023-04-20T01:25:42.535Z,3.72
2023-04-20T01:28:27.966Z,3.53
2023-04-20T01:31:13.675Z,3.80
2023-04-20T01:33:59.720Z,4.07
2023-04-20T01:36:45.661Z,3.60
2023-04-20T01:39:31.136Z,3.08
2023-04-20T01:42:16.588Z,3.33
2023-04-20T01:45:02.060Z,3.60
2023-04-20T01:47:47.437Z,4.25
2023-04-20T01:50:32.824Z,2.85
2023-04-20T01:53:18.756Z,3.90
2023-04-20T01:56:05.672Z,2.85
2023-04-20T01:58:51.329Z,3.35
2023-04-20T02:01:37.066Z,3.17
2023-04-20T02:04:24.941Z,4.00
2023-04-20T02:07:10.574Z,3.55
2023-04-20T02:09:57.494Z,3.45
2023-04-20T02:12:42.790Z,3.70
2023-04-20T02:15:28.064Z,3.55
2023-04-20T02:18:13.411Z,3.50
2023-04-20T02:21:00.438Z,3.75
2023-04-20T02:23:45.857Z,3.70
2023-04-20T02:26:31.052Z,4.40
2023-04-20T02:29:17.004Z,3.67
2023-04-20T02:32:02.904Z,4.75
2023-04-20T02:34:48.913Z,4.60
2023-04-20T02:37:34.851Z,4.40
2023-04-20T02:40:20.912Z,4.18
2023-04-20T02:43:06.585Z,4.40
2023-04-20T02:45:53.325Z,4.30
2023-04-20T02:48:40.569Z,4.03
2023-04-20T02:51:26.992Z,3.90
2023-04-20T02:54:13.496Z,4.60
2023-04-20T02:56:59.030Z,4.55
2023-04-20T02:59:45.238Z,3.92
2023-04-20T03:02:38.616Z,4.43
2023-04-20T03:05:24.529Z,4.93
2023-04-20T03:08:09.817Z,5.05
2023-04-20T03:10:55.215Z,6.07
2023-04-20T03:13:41.533Z,5.45
2023-04-20T03:16:26.946Z,5.30
2023-04-20T03:19:14.381Z,5.40
2023-04-20T03:22:00.144Z,4.47
2023-04-20T03:24:47.769Z,5.47
2023-04-20T03:27:46.191Z,5.10
2023-04-20T03:30:32.979Z,4.50
2023-04-20T03:33:22.837Z,4.50
2023-04-20T03:36:09.392Z,5.03
2023-04-20T03:38:55.522Z,4.57
2023-04-20T03:41:41.406Z,4.57
2023-04-20T03:44:26.790Z,4.30
2023-04-20T03:47:12.175Z,4.10
2023-04-20T03:49:58.114Z,5.43
2023-04-20T03:52:43.309Z,4.82
2023-04-20T03:55:29.836Z,4.95
2023-04-20T03:58:21.118Z,3.92
2023-04-20T04:01:18.798Z,4.65
2023-04-20T04:04:07.655Z,4.65
2023-04-20T04:06:53.890Z,5.07
2023-04-20T04:09:39.292Z,5.25
2023-04-20T04:12:26.068Z,5.07
2023-04-20T04:15:12.585Z,4.88
2023-04-20T04:18:06.628Z,5.13
2023-04-20T04:20:53.944Z,4.53
2023-04-20T04:23:39.572Z,5.40
2023-04-20T04:26:36.441Z,5.03
2023-04-20T04:29:23.400Z,5.60
2023-04-20T04:32:09.619Z,5.57
2023-04-20T04:34:56.623Z,6.25
2023-04-20T04:37:44.577Z,5.50
2023-04-20T04:40:29.887Z,5.57
2023-04-20T04:43:17.235Z,6.00
2023-04-20T04:46:11.078Z,5.18
2023-04-20T04:48:56.585Z,6.45
2023-04-20T04:51:43.174Z,6.63
2023-04-20T04:54:29.968Z,5.95
2023-04-20T04:57:15.912Z,6.85
2023-04-20T05:00:01.484Z,5.20
2023-04-20T05:02:46.937Z,5.80
2023-04-20T05:05:32.902Z,5.97
2023-04-20T05:08:18.497Z,5.35
2023-04-20T05:11:03.952Z,4.97
2023-04-20T05:13:49.914Z,5.35
2023-04-20T05:16:36.217Z,5.78
2023-04-20T05:19:22.205Z,5.57
2023-04-20T05:22:08.670Z,6.00
2023-04-20T05:24:54.476Z,5.95
2023-04-20T05:27:40.413Z,6.07
2023-04-20T05:30:26.101Z,5.68
2023-04-20T05:33:11.360Z,6.40
2023-04-20T05:35:57.723Z,5.47
2023-04-20T05:38:43.096Z,5.80
2023-04-20T05:41:28.614Z,6.18
2023-04-20T05:44:14.044Z,5.00
2023-04-20T05:46:59.795Z,5.55
2023-04-20T05:49:46.142Z,4.90
2023-04-20T05:52:31.501Z,4.70
2023-04-20T05:55:18.959Z,5.30
2023-04-20T05:58:05.961Z,4.28
2023-04-20T06:00:51.564Z,5.03
2023-04-20T06:03:37.089Z,4.40
2023-04-20T06:06:23.030Z,4.47
2023-04-20T06:09:08.539Z,4.70
2023-04-20T06:11:53.959Z,4.75
2023-04-20T06:14:39.159Z,4.72
2023-04-20T06:17:24.825Z,4.20
2023-04-20T06:20:11.578Z,4.97
2023-04-20T06:22:56.857Z,4.35
2023-04-20T06:25:42.922Z,3.92
2023-04-20T06:28:28.450Z,3.80
2023-04-20T06:31:13.927Z,3.53
2023-04-20T06:33:59.461Z,3.53
2023-04-20T06:36:45.020Z,2.75
2023-04-20T06:39:30.512Z,3.50
2023-04-20T06:42:16.087Z,3.15
2023-04-20T06:45:02.123Z,2.83
2023-04-20T06:47:48.151Z,3.33
2023-04-20T06:50:34.231Z,2.67
2023-04-20T06:53:19.612Z,2.70
2023-04-20T06:56:05.513Z,3.03
2023-04-20T06:58:51.156Z,4.28
2023-04-20T07:01:36.725Z,3.70
2023-04-20T07:04:22.385Z,3.60
2023-04-20T07:07:08.004Z,2.85
2023-04-20T07:09:53.330Z,3.45
2023-04-20T07:12:42.188Z,2.88
2023-04-20T07:15:28.338Z,3.65
2023-04-20T07:18:13.817Z,3.92
2023-04-20T07:20:59.096Z,2.40
2023-04-20T07:23:45.101Z,2.38
2023-04-20T07:26:31.268Z,2.63
2023-04-20T07:29:17.175Z,2.63
2023-04-20T07:32:02.811Z,2.40
2023-04-20T07:34:48.657Z,2.08
2023-04-20T07:37:34.614Z,3.70
2023-04-20T07:40:19.884Z,3.15
2023-04-20T07:43:05.658Z,1.92
2023-04-20T07:45:51.487Z,2.15
2023-04-20T07:48:37.283Z,2.67
2023-04-20T07:51:22.838Z,2.15
2023-04-20T07:54:08.736Z,1.80
2023-04-20T07:56:54.798Z,2.33
2023-04-20T07:59:40.804Z,3.13
2023-04-20T08:02:26.602Z,2.47
2023-04-20T08:05:12.721Z,3.08
2023-04-20T08:07:59.374Z,2.70
2023-04-20T08:10:45.009Z,2.45
2023-04-20T08:13:32.259Z,3.45
2023-04-20T08:16:17.810Z,4.03
2023-04-20T08:19:10.052Z,3.65
2023-04-20T08:21:55.778Z,2.33
2023-04-20T08:24:41.406Z,3.70
2023-04-20T08:27:29.604Z,2.92
2023-04-20T08:30:15.601Z,5.53
2023-04-20T08:33:01.015Z,5.03
2023-04-20T08:35:46.747Z,4.40
2023-04-20T08:38:34.158Z,2.65
2023-04-20T08:41:19.919Z,2.10
2023-04-20T08:44:06.690Z,2.13
2023-04-20T08:46:52.579Z,2.72
2023-04-20T08:49:39.736Z,2.05
2023-04-20T08:52:25.338Z,1.95
2023-04-20T08:55:14.928Z,1.83
2023-04-20T08:58:00.326Z,1.60
2023-04-20T09:00:49.448Z,2.17
2023-04-20T09:03:40.957Z,2.03
2023-04-20T09:06:26.885Z,2.40
2023-04-20T09:09:12.822Z,1.80
2023-04-20T09:12:07.665Z,2.08
2023-04-20T09:14:54.245Z,2.10
2023-04-20T09:17:41.052Z,3.05
2023-04-20T09:20:34.967Z,3.05
2023-04-20T09:23:21.613Z,2.28
2023-04-20T09:26:07.074Z,3.45
2023-04-20T09:28:52.735Z,2.10
2023-04-20T09:31:38.528Z,2.50
2023-04-20T09:34:24.270Z,2.70
2023-04-20T09:37:10.884Z,1.90
2023-04-20T09:40:00.351Z,2.33
2023-04-20T09:42:48.513Z,1.98
2023-04-20T09:45:34.368Z,2.17
2023-04-20T09:48:21.723Z,2.42
2023-04-20T09:51:07.732Z,2.50
2023-04-20T09:53:54.735Z,2.03
2023-04-20T09:56:41.234Z,1.88
2023-04-20T09:59:27.695Z,2.47
2023-04-20T10:02:14.570Z,2.78
2023-04-20T10:05:01.837Z,2.03
2023-04-20T10:07:47.348Z,3.03
2023-04-20T10:10:47.327Z,2.17
2023-04-20T10:13:34.186Z,2.58
2023-04-20T10:16:21.248Z,2.20
2023-04-20T10:19:09.041Z,2.33
2023-04-20T10:21:54.958Z,2.03
2023-04-20T10:24:40.394Z,2.10
2023-04-20T10:27:26.238Z,2.30
2023-04-20T10:30:12.564Z,1.90
2023-04-20T10:33:09.963Z,2.28
2023-04-20T10:35:57.849Z,1.38
2023-04-20T10:38:43.475Z,2.47
2023-04-20T10:41:29.863Z,2.05
2023-04-20T10:44:16.017Z,2.10
2023-04-20T10:47:01.783Z,2.72
2023-04-20T10:49:47.422Z,2.25
2023-04-20T10:52:37.407Z,2.80
2023-04-20T10:55:26.522Z,2.40
2023-04-20T10:58:23.330Z,2.20
2023-04-20T11:01:09.550Z,2.20
2023-04-20T11:03:55.061Z,1.70
2023-04-20T11:06:44.411Z,2.05
2023-04-20T11:09:31.288Z,2.60
2023-04-20T11:12:18.044Z,2.33
2023-04-20T11:15:04.472Z,1.83
2023-04-20T11:17:50.935Z,1.70
2023-04-20T11:20:36.430Z,3.15
2023-04-20T11:23:23.543Z,1.90
2023-04-20T11:26:09.748Z,2.08
2023-04-20T11:28:56.440Z,2.00
2023-04-20T11:31:42.596Z,2.60
2023-04-20T11:34:29.148Z,2.53
2023-04-20T11:37:14.536Z,2.38
2023-04-20T11:40:01.608Z,2.42
2023-04-20T11:42:47.246Z,3.03
2023-04-20T11:45:36.703Z,2.08
2023-04-20T11:48:22.682Z,2.38
2023-04-20T11:51:08.947Z,2.13
2023-04-20T11:53:54.727Z,2.25
2023-04-20T11:56:44.925Z,2.10
2023-04-20T11:59:30.658Z,2.17
2023-04-20T12:02:16.478Z,1.83
2023-04-20T12:05:03.016Z,1.92
2023-04-20T12:07:49.015Z,2.40
2023-04-20T12:10:34.370Z,2.38
2023-04-20T12:13:19.996Z,2.05
2023-04-20T12:16:05.782Z,2.53
2023-04-20T12:18:51.839Z,2.03
2023-04-20T12:21:37.596Z,1.67
2023-04-20T12:24:23.407Z,2.08
2023-04-20T12:27:09.097Z,2.92
2023-04-20T12:29:54.520Z,2.47
2023-04-20T12:32:39.931Z,2.13
2023-04-20T12:35:25.234Z,2.22
2023-04-20T12:38:11.790Z,1.50
2023-04-20T12:40:59.148Z,1.77
2023-04-20T12:43:45.092Z,3.05
2023-04-20T12:46:30.858Z,1.77
2023-04-20T12:49:16.583Z,2.15
2023-04-20T12:52:02.457Z,3.78
2023-04-20T12:54:48.056Z,1.80
2023-04-20T12:57:33.615Z,2.50
2023-04-20T13:00:19.675Z,2.15
2023-04-20T13:03:05.211Z,1.77
2023-04-20T13:05:50.903Z,2.10
2023-04-20T13:08:37.308Z,1.90
2023-04-20T13:11:23.244Z,1.85
2023-04-20T13:14:09.285Z,1.88
2023-04-20T13:16:55.506Z,2.25
2023-04-20T13:19:41.672Z,1.88
2023-04-20T13:22:27.277Z,1.70
2023-04-20T13:25:13.228Z,1.95
2023-04-20T13:27:59.745Z,1.60
2023-04-20T13:30:46.017Z,2.10
2023-04-20T13:33:33.702Z,2.25
2023-04-20T13:36:19.591Z,1.83
2023-04-20T13:39:05.577Z,1.70
2023-04-20T13:41:51.225Z,1.35
2023-04-20T13:44:36.674Z,2.05
2023-04-20T13:47:22.697Z,1.75
2023-04-20T13:50:09.127Z,1.50
2023-04-20T13:52:54.737Z,2.50
2023-04-20T13:55:40.496Z,2.13
2023-04-20T13:58:28.842Z,2.17
2023-04-20T14:01:16.846Z,1.52
2023-04-20T14:04:02.504Z,2.13
2023-04-20T14:06:48.498Z,1.80
2023-04-20T14:09:34.076Z,1.80
2023-04-20T14:12:19.991Z,2.75
2023-04-20T14:15:06.233Z,1.55
2023-04-20T14:17:52.888Z,1.63
2023-04-20T14:20:38.848Z,1.80
2023-04-20T14:23:24.200Z,1.75
2023-04-20T14:26:09.978Z,1.70
2023-04-20T14:28:55.762Z,1.70
2023-04-20T14:31:41.257Z,1.58
2023-04-20T14:34:26.654Z,1.88
2023-04-20T14:37:12.038Z,2.50
2023-04-20T14:39:57.624Z,1.83
2023-04-20T14:42:43.514Z,1.85
2023-04-20T14:45:29.125Z,1.75
2023-04-20T14:48:14.782Z,2.45
2023-04-20T14:51:00.534Z,1.77
2023-04-20T14:53:46.463Z,2.45
2023-04-20T14:56:32.466Z,2.22
2023-04-20T14:59:18.224Z,1.88
2023-04-20T15:02:05.957Z,2.00
2023-04-20T15:04:51.951Z,2.35
2023-04-20T15:07:37.856Z,2.22
2023-04-20T15:10:23.918Z,2.20
2023-04-20T15:13:09.574Z,2.30
2023-04-20T15:15:55.575Z,2.97
2023-04-20T15:18:41.774Z,3.13
2023-04-20T15:21:27.705Z,2.42
2023-04-20T15:24:13.353Z,3.88
2023-04-20T15:26:59.240Z,2.50
2023-04-20T15:29:44.747Z,3.13
2023-04-20T15:32:30.440Z,3.60
2023-04-20T15:35:15.975Z,2.47
2023-04-20T15:38:01.572Z,2.15
2023-04-20T15:40:46.897Z,1.80
2023-04-20T15:43:32.229Z,2.47
2023-04-20T15:46:17.847Z,2.33
2023-04-20T15:49:03.468Z,2.55
2023-04-20T15:51:51.595Z,2.30
2023-04-20T15:54:39.131Z,2.72
2023-04-20T15:57:25.088Z,2.65
2023-04-20T16:00:11.589Z,2.45
2023-04-20T16:02:57.439Z,2.78
2023-04-20T16:05:43.168Z,2.10
2023-04-20T16:08:28.733Z,2.47
2023-04-20T16:11:14.479Z,3.03
2023-04-20T16:14:00.498Z,2.42
2023-04-20T16:16:46.427Z,2.35
2023-04-20T16:19:31.959Z,3.53
2023-04-20T16:22:17.478Z,3.05
2023-04-20T16:25:03.338Z,1.98
2023-04-20T16:27:50.926Z,2.53
2023-04-20T16:30:37.117Z,3.28
2023-04-20T16:33:22.376Z,3.80
2023-04-20T16:36:08.503Z,2.10
2023-04-20T16:38:53.946Z,2.47
2023-04-20T16:41:39.290Z,2.22
2023-04-20T16:44:24.918Z,2.22
2023-04-20T16:47:10.457Z,2.40
2023-04-20T16:49:56.562Z,2.30
2023-04-20T16:52:42.056Z,2.58
2023-04-20T16:55:27.383Z,2.38
2023-04-20T16:58:12.934Z,3.00
2023-04-20T17:00:58.380Z,2.50
2023-04-20T17:03:44.437Z,2.13
2023-04-20T17:06:30.234Z,2.20
2023-04-20T17:09:15.638Z,2.15
2023-04-20T17:12:01.518Z,2.30
2023-04-20T17:14:47.175Z,2.40
2023-04-20T17:17:33.100Z,2.00
2023-04-20T17:20:18.906Z,2.58
2023-04-20T17:23:04.444Z,2.45
2023-04-20T17:25:51.282Z,2.05
2023-04-20T17:28:37.177Z,1.98
2023-04-20T17:31:23.154Z,1.90
2023-04-20T17:34:08.823Z,2.03
2023-04-20T17:36:54.270Z,2.22
2023-04-20T17:39:40.327Z,1.83
2023-04-20T17:42:25.986Z,2.25
2023-04-20T17:45:12.047Z,2.15
2023-04-20T17:47:57.595Z,1.90
2023-04-20T17:50:43.477Z,1.83
2023-04-20T17:53:29.573Z,2.33
2023-04-20T17:56:15.126Z,2.40
2023-04-20T17:59:00.539Z,1.77
2023-04-20T18:01:46.068Z,2.85
2023-04-20T18:04:31.865Z,2.08
2023-04-20T18:07:18.471Z,1.63
2023-04-20T18:10:04.420Z,2.28
2023-04-20T18:12:51.088Z,2.83
2023-04-20T18:15:38.525Z,1.75
2023-04-20T18:18:25.139Z,2.30
2023-04-20T18:21:12.107Z,2.35
2023-04-20T18:23:57.641Z,1.77
2023-04-20T18:26:43.326Z,1.88
2023-04-20T18:29:29.905Z,2.00
2023-04-20T18:32:16.469Z,1.98
2023-04-20T18:35:03.082Z,1.63
2023-04-20T18:37:48.620Z,2.22
2023-04-20T18:40:34.329Z,2.03
2023-04-20T18:43:19.851Z,2.00
2023-04-20T18:46:09.311Z,3.17
2023-04-20T18:48:55.060Z,2.53
2023-04-20T18:51:40.740Z,2.17
2023-04-20T18:54:26.608Z,1.77
2023-04-20T18:57:12.249Z,2.03
2023-04-20T18:59:57.668Z,1.92
2023-04-20T19:02:43.982Z,2.30
2023-04-20T19:05:30.949Z,2.08
2023-04-20T19:08:16.621Z,2.38
2023-04-20T19:11:02.141Z,1.80
2023-04-20T19:13:48.499Z,1.75
2023-04-20T19:16:34.843Z,2.30
2023-04-20T19:19:20.403Z,2.78
2023-04-20T19:22:06.068Z,4.22
2023-04-20T19:24:51.857Z,6.38
2023-04-20T19:27:38.072Z,3.90
2023-04-20T19:30:23.777Z,5.88
2023-04-20T19:33:09.423Z,6.15
2023-04-20T19:35:54.862Z,4.13
2023-04-20T19:38:41.063Z,4.25
2023-04-20T19:41:26.694Z,2.53
2023-04-20T19:44:14.442Z,3.00
2023-04-20T19:47:00.645Z,4.22
2023-04-20T19:49:46.910Z,4.70
2023-04-20T19:52:34.388Z,8.20
2023-04-20T19:55:19.872Z,6.72
2023-04-20T19:58:14.717Z,5.90
2023-04-20T20:01:01.351Z,6.13
2023-04-20T20:03:46.783Z,4.72
2023-04-20T20:06:34.026Z,4.28
2023-04-20T20:09:23.145Z,2.85
2023-04-20T20:12:10.810Z,3.85
2023-04-20T20:14:56.130Z,3.33
2023-04-20T20:17:41.908Z,2.20
2023-04-20T20:20:30.344Z,2.50
2023-04-20T20:23:15.909Z,2.05
2023-04-20T20:26:02.522Z,3.15
2023-04-20T20:28:48.261Z,4.18
2023-04-20T20:31:34.014Z,4.07
2023-04-20T20:34:19.991Z,2.67
2023-04-20T20:37:05.261Z,3.63
2023-04-20T20:39:53.225Z,3.00
2023-04-20T20:42:40.108Z,4.22
2023-04-20T20:45:25.693Z,2.95
2023-04-20T20:48:11.109Z,3.63
2023-04-20T20:50:56.529Z,4.30
2023-04-20T20:53:42.148Z,5.00
2023-04-20T20:56:27.778Z,4.20
2023-04-20T20:59:13.052Z,4.68
2023-04-20T21:01:58.459Z,3.70
2023-04-20T21:04:43.805Z,4.07
2023-04-20T21:07:29.097Z,5.00
2023-04-20T21:10:14.637Z,5.15
2023-04-20T21:13:00.105Z,5.30
2023-04-20T21:15:45.687Z,4.45
2023-04-20T21:18:31.176Z,5.10
2023-04-20T21:21:16.540Z,6.10
2023-04-20T21:24:02.163Z,6.32
2023-04-20T21:26:47.563Z,4.80
2023-04-20T21:29:32.840Z,3.97
2023-04-20T21:32:18.327Z,3.50
2023-04-20T21:35:04.597Z,4.07
2023-04-20T21:37:50.263Z,4.00
2023-04-20T21:40:35.807Z,3.47
2023-04-20T21:43:21.608Z,3.42
2023-04-20T21:46:07.032Z,3.15
2023-04-20T21:48:52.614Z,2.67
2023-04-20T21:51:38.074Z,3.75
2023-04-20T21:54:23.605Z,2.80
2023-04-20T21:57:09.067Z,3.28
2023-04-20T21:59:54.279Z,2.53
2023-04-20T22:02:39.872Z,2.65
2023-04-20T22:05:26.185Z,3.08
2023-04-20T22:08:13.861Z,3.30
2023-04-20T22:10:59.261Z,2.50
2023-04-20T22:13:45.328Z,3.17
2023-04-20T22:16:33.980Z,2.70
2023-04-20T22:19:19.597Z,2.80
2023-04-20T22:22:05.734Z,2.90
2023-04-20T22:24:51.375Z,2.72
2023-04-20T22:27:37.845Z,2.70
2023-04-20T22:30:23.495Z,2.67
2023-04-20T22:33:09.119Z,2.92
2023-04-20T22:35:54.948Z,2.20
2023-04-20T22:38:40.645Z,2.22
2023-04-20T22:41:26.271Z,3.03
2023-04-20T22:44:11.766Z,3.05
2023-04-20T22:46:57.136Z,2.60
2023-04-20T22:49:42.691Z,3.28
2023-04-20T22:52:27.942Z,3.17
2023-04-20T22:55:14.383Z,3.03
2023-04-20T22:57:59.943Z,2.80
2023-04-20T23:00:45.351Z,2.72
2023-04-20T23:03:31.263Z,2.70
2023-04-20T23:06:18.124Z,2.60
2023-04-20T23:09:07.292Z,2.78
2023-04-20T23:11:53.838Z,2.63
2023-04-20T23:14:42.655Z,2.72
2023-04-20T23:17:29.069Z,3.05
2023-04-20T23:20:15.116Z,2.20
2023-04-20T23:23:00.849Z,2.63
2023-04-20T23:25:46.195Z,2.30
2023-04-20T23:28:31.632Z,2.50
2023-04-20T23:31:17.012Z,2.80
2023-04-20T23:34:02.783Z,2.47
2023-04-20T23:36:48.284Z,2.58
2023-04-20T23:39:37.799Z,2.63
2023-04-20T23:42:23.167Z,2.67
2023-04-20T23:45:09.236Z,2.78
2023-04-20T23:47:54.600Z,2.83
2023-04-20T23:50:39.892Z,2.45
2023-04-20T23:53:25.439Z,2.38
2023-04-20T23:56:11.852Z,2.58
2023-04-20T23:58:58.961Z,3.08
